AZ7 weather

CLOSED Morfee Lakes Water Aerodrome
Mackenzie, British Columbia, Canada

Public forecast

Using degrees Celsius for public forecast. Weather courtesy of forecast.io.

METAR (pilot weather report)

Closest report is Mackenzie Airport, 3.3 nm (6.0 km) SSW. Retrieved 2019/08/25 14:00 UTC (25 minutes ago):

CYZY 251400Z AUTO 14004KT 9SM BKN070 OVC081 11/08 A2992 RMK SLP144

TAF (pilot weather forecast)

Closest forecast is Mackenzie Airport, 3.3 nm (6.0 km) SSW. Retrieved 2019/08/25 15:42 UTC (0 seconds ago):

TAF TAF CYZY 251438Z 2515/2603 VRB03KT P6SM BKN070 BECMG 2518/2520 24010G20KT RMK FCST BASED ON AUTO OBS. NXT FCST BY 251900Z